| time (UTC) | temp F | wind direction | speed knots | gust knots | rain 1hr in | rain 24hr in | rain mn in | humidity % | barometer mb |
| 20260509201703 | 65 | 295 | 0.9 | 0.9 | 0.00 | 0.01 | 0.01 | 62 | 1008.2 |
| 20260509201200 | 66 | 292 | 0.9 | 0.9 | 0.00 | 0.01 | 0.01 | 63 | 1008.2 |
| 20260509200656 | 65 | 283 | 0.0 | 0.9 | 0.00 | 0.01 | 0.01 | 63 | 1008.3 |
| 20260509200151 | 66 | 290 | 0.9 | 1.7 | 0.00 | 0.01 | 0.01 | 61 | 1008.2 |
| 20260509195647 | 66 | 275 | 0.0 | 1.7 | 0.00 | 0.01 | 0.01 | 64 | 1008.6 |
| 20260509195142 | 66 | 20 | 1.7 | 2.6 | 0.00 | 0.01 | 0.01 | 62 | 1008.3 |
| 20260509194637 | 68 | 281 | 0.9 | 0.9 | 0.00 | 0.01 | 0.01 | 61 | 1008.5 |
| 20260509194134 | 68 | 271 | 0.0 | 0.0 | 0.00 | 0.01 | 0.01 | 60 | 1008.5 |
| 20260509193630 | 68 | 282 | 0.0 | 0.9 | 0.00 | 0.01 | 0.01 | 62 | 1008.2 |
| 20260509193126 | 69 | 269 | 0.0 | 0.0 | 0.00 | 0.01 | 0.01 | 60 | 1008.4 |
| 20260509192623 | 69 | 331 | 0.9 | 1.7 | 0.00 | 0.01 | 0.01 | 62 | 1008.6 |
| 20260509192118 | 68 | 276 | 0.0 | 0.0 | 0.00 | 0.01 | 0.01 | 58 | 1008.5 |
| 20260509191612 | 67 | 279 | 0.0 | 0.9 | 0.00 | 0.01 | 0.01 | 62 | 1008.4 |
| 20260509191109 | 66 | 259 | 0.0 | 1.7 | 0.00 | 0.01 | 0.01 | 61 | 1008.4 |
| 20260509190606 | 67 | 267 | 0.0 | 2.6 | 0.00 | 0.01 | 0.01 | 61 | 1008.7 |
| 20260509185601 | 67 | 237 | 0.9 | 2.6 | 0.00 | 0.01 | 0.01 | 61 | 1008.6 |
| 20260509185056 | 68 | 217 | 3.5 | 5.2 | 0.00 | 0.01 | 0.01 | 59 | 1008.8 |
| 20260509184555 | 69 | 217 | 1.7 | 2.6 | 0.00 | 0.01 | 0.01 | 57 | 1008.8 |
| 20260509184051 | 68 | 277 | 0.9 | 1.7 | 0.00 | 0.01 | 0.01 | 59 | 1008.6 |
| 20260509183547 | 67 | 242 | 1.7 | 1.7 | 0.00 | 0.01 | 0.01 | 57 | 1008.9 |
| 20260509183043 | 67 | 77 | 1.7 | 2.6 | 0.00 | 0.01 | 0.01 | 61 | 1008.9 |
| 20260509182539 | 66 | 279 | 0.9 | 1.7 | 0.00 | 0.01 | 0.01 | 61 | 1008.9 |
| 20260509182036 | 66 | 214 | 2.6 | 2.6 | 0.00 | 0.01 | 0.01 | 59 | 1009.0 |
| 20260509181534 | 67 | 253 | 1.7 | 2.6 | 0.00 | 0.01 | 0.01 | 61 | 1009.2 |
| 20260509181031 | 67 | 282 | 0.0 | 0.9 | 0.00 | 0.01 | 0.01 | 61 | 1009.3 |
| 20260509180527 | 66 | 177 | 2.6 | 2.6 | 0.00 | 0.01 | 0.01 | 61 | 1009.3 |
| 20260509180025 | 66 | 202 | 2.6 | 4.3 | 0.00 | 0.01 | 0.01 | 61 | 1009.6 |
| 20260509175520 | 66 | 274 | 0.0 | 0.9 | 0.00 | 0.01 | 0.01 | 63 | 1009.9 |
| 20260509175017 | 68 | 215 | 0.9 | 1.7 | 0.00 | 0.01 | 0.01 | 58 | 1009.9 |
| 20260509174513 | 67 | 261 | 0.0 | 0.0 | 0.00 | 0.01 | 0.01 | 63 | 1009.9 |
| 20260509174008 | 64 | 267 | 0.0 | 0.9 | 0.00 | 0.01 | 0.01 | 62 | 1010.1 |
| 20260509173503 | 64 | 202 | 4.3 | 5.2 | 0.00 | 0.01 | 0.01 | 63 | 1009.9 |
| 20260509173000 | 63 | 266 | 0.0 | 1.7 | 0.00 | 0.01 | 0.01 | 67 | 1010.2 |
| 20260509172457 | 62 | 205 | 2.6 | 2.6 | 0.00 | 0.01 | 0.01 | 68 | 1010.1 |
| 20260509171952 | 63 | 220 | 2.6 | 2.6 | 0.00 | 0.01 | 0.01 | 67 | 1010.4 |
| 20260509171449 | 62 | 259 | 0.0 | 0.0 | 0.00 | 0.01 | 0.01 | 68 | 1010.4 |
| 20260509170945 | 62 | 255 | 0.9 | 0.9 | 0.00 | 0.01 | 0.01 | 67 | 1010.4 |
| 20260509170440 | 62 | 253 | 0.9 | 1.7 | 0.00 | 0.01 | 0.01 | 67 | 1010.4 |
| 20260509165936 | 62 | 275 | 0.0 | 0.0 | 0.00 | 0.01 | 0.01 | 66 | 1010.5 |
| 20260509165430 | 63 | 267 | 0.0 | 0.0 | 0.00 | 0.01 | 0.01 | 64 | 1010.2 |
| 20260509164926 | 63 | 272 | 0.0 | 0.9 | 0.00 | 0.01 | 0.01 | 68 | 1010.2 |
| 20260509164422 | 62 | 271 | 0.0 | 0.9 | 0.00 | 0.01 | 0.01 | 68 | 1009.9 |
| 20260509163918 | 61 | 262 | 0.9 | 2.6 | 0.00 | 0.01 | 0.01 | 69 | 1010.0 |
| 20260509163416 | 61 | 300 | 0.9 | 1.7 | 0.00 | 0.01 | 0.01 | 68 | 1010.1 |
| 20260509162915 | 61 | 356 | 2.6 | 2.6 | 0.00 | 0.01 | 0.01 | 68 | 1010.0 |
| 20260509162414 | 61 | 331 | 1.7 | 2.6 | 0.00 | 0.01 | 0.01 | 70 | 1010.2 |
| 20260509161909 | 61 | 303 | 1.7 | 1.7 | 0.00 | 0.01 | 0.01 | 71 | 1010.2 |
| 20260509161406 | 61 | 307 | 1.7 | 1.7 | 0.00 | 0.01 | 0.01 | 70 | 1010.3 |
| 20260509160902 | 61 | 303 | 0.9 | 2.6 | 0.00 | 0.01 | 0.01 | 70 | 1010.3 |
| 20260509160357 | 61 | 336 | 2.6 | 2.6 | 0.00 | 0.01 | 0.01 | 67 | 1010.3 |
| 20260509155853 | 62 | 308 | 0.9 | 1.7 | 0.00 | 0.01 | 0.01 | 67 | 1010.6 |
| 20260509155349 | 63 | 317 | 0.9 | 2.6 | 0.00 | 0.01 | 0.01 | 64 | 1010.5 |
| 20260509154846 | 62 | 280 | 0.0 | 0.9 | 0.00 | 0.01 | 0.01 | 67 | 1010.6 |
| 20260509154342 | 63 | 303 | 0.9 | 2.6 | 0.00 | 0.01 | 0.01 | 67 | 1010.7 |
| 20260509153839 | 63 | 345 | 0.0 | 0.0 | 0.00 | 0.01 | 0.01 | 68 | 1010.4 |
| 20260509153337 | 63 | 275 | 0.0 | 1.7 | 0.00 | 0.01 | 0.01 | 68 | 1010.3 |
| 20260509152833 | 63 | 264 | 0.0 | 0.0 | 0.00 | 0.01 | 0.01 | 67 | 1010.6 |
| 20260509152329 | 63 | 277 | 0.0 | 0.0 | 0.00 | 0.01 | 0.01 | 71 | 1010.6 |
| 20260509151827 | 62 | 269 | 0.0 | 0.0 | 0.00 | 0.01 | 0.01 | 71 | 1010.5 |
| 20260509151322 | 61 | 267 | 0.0 | 0.0 | 0.00 | 0.01 | 0.01 | 72 | 1010.6 |
| 20260509150821 | 60 | 245 | 0.0 | 0.0 | 0.00 | 0.01 | 0.01 | 72 | 1010.7 |
| 20260509150318 | 60 | 270 | 0.0 | 0.9 | 0.00 | 0.01 | 0.01 | 73 | 1011.1 |
| 20260509145815 | 59 | 234 | 0.0 | 0.0 | 0.00 | 0.01 | 0.01 | 75 | 1010.8 |
| 20260509145315 | 58 | 282 | 0.0 | 0.0 | 0.00 | 0.01 | 0.01 | 77 | 1010.7 |
| 20260509144812 | 58 | 283 | 0.0 | 0.0 | 0.00 | 0.01 | 0.01 | 78 | 1010.8 |
| 20260509144309 | 58 | 282 | 0.0 | 0.0 | 0.00 | 0.01 | 0.01 | 81 | 1010.8 |
| 20260509143806 | 57 | 278 | 0.0 | 0.0 | 0.00 | 0.01 | 0.01 | 84 | 1010.7 |
| 20260509143304 | 57 | 278 | 0.0 | 0.0 | 0.00 | 0.01 | 0.01 | 86 | 1010.8 |
| 20260509142800 | 56 | 281 | 0.0 | 0.0 | 0.00 | 0.01 | 0.01 | 87 | 1010.5 |
| 20260509142256 | 56 | 278 | 0.0 | 0.9 | 0.00 | 0.01 | 0.01 | 88 | 1010.3 |
| 20260509141751 | 55 | 290 | 0.0 | 0.9 | 0.00 | 0.01 | 0.01 | 88 | 1010.2 |
| 20260509141249 | 55 | 329 | 1.7 | 1.7 | 0.00 | 0.01 | 0.01 | 88 | 1010.1 |
| 20260509140745 | 55 | 280 | 0.0 | 0.0 | 0.00 | 0.01 | 0.01 | 90 | 1010.3 |
| 20260509140242 | 54 | 288 | 0.0 | 0.9 | 0.00 | 0.01 | 0.01 | 90 | 1010.4 |
| 20260509135740 | 54 | 281 | 0.0 | 0.9 | 0.00 | 0.01 | 0.01 | 91 | 1010.4 |
| 20260509135238 | 54 | 269 | 0.9 | 1.7 | 0.00 | 0.01 | 0.01 | 89 | 1010.8 |
| 20260509134734 | 54 | 223 | 0.9 | 1.7 | 0.00 | 0.01 | 0.01 | 87 | 1010.6 |
| 20260509134232 | 55 | 289 | 0.0 | 0.0 | 0.00 | 0.01 | 0.01 | 83 | 1010.3 |
| 20260509133729 | 55 | 281 | 0.0 | 0.0 | 0.00 | 0.01 | 0.01 | 82 | 1010.6 |
| 20260509133225 | 55 | 293 | 0.0 | 0.9 | 0.00 | 0.01 | 0.01 | 80 | 1010.5 |
| 20260509132724 | 55 | 274 | 0.0 | 0.0 | 0.05 | 0.01 | 0.01 | 80 | 1010.7 |
| 20260509132222 | 55 | 272 | 0.0 | 1.7 | 0.05 | 0.01 | 0.01 | 79 | 1010.7 |
| 20260509131718 | 56 | 248 | 1.7 | 2.6 | 0.00 | 0.00 | 0.00 | 78 | 1010.7 |
| 20260509131215 | 57 | 273 | 0.0 | 0.0 | 0.00 | 0.00 | 0.00 | 77 | 1010.4 |
| 20260509130711 | 56 | 282 | 0.0 | 0.0 | 0.00 | 0.00 | 0.00 | 74 | 1010.3 |
| 20260509130207 | 56 | 272 | 0.0 | 0.9 | 0.00 | 0.00 | 0.00 | 73 | 1010.3 |
| 20260509125704 | 56 | 246 | 1.7 | 2.6 | 0.00 | 0.00 | 0.00 | 74 | 1010.3 |
| 20260509125201 | 56 | 194 | 2.6 | 4.3 | 0.00 | 0.00 | 0.00 | 73 | 1010.3 |
| 20260509124657 | 56 | 212 | 0.9 | 1.7 | 0.00 | 0.00 | 0.00 | 73 | 1010.1 |
| 20260509124154 | 56 | 249 | 1.7 | 2.6 | 0.00 | 0.00 | 0.00 | 71 | 1010.4 |
| 20260509123652 | 56 | 243 | 1.7 | 2.6 | 0.00 | 0.00 | 0.00 | 72 | 1010.1 |
| 20260509123149 | 56 | 203 | 2.6 | 4.3 | 0.00 | 0.00 | 0.00 | 72 | 1010.3 |
| 20260509122644 | 56 | 241 | 0.0 | 4.3 | 0.00 | 0.00 | 0.00 | 72 | 1010.2 |
| 20260509122142 | 56 | 214 | 1.7 | 4.3 | 0.00 | 0.00 | 0.00 | 70 | 1010.0 |
| 20260509121638 | 56 | 220 | 2.6 | 2.6 | 0.00 | 0.00 | 0.00 | 71 | 1010.3 |
| 20260509121136 | 56 | 254 | 0.9 | 1.7 | 0.00 | 0.00 | 0.00 | 70 | 1010.3 |
| 20260509120634 | 56 | 277 | 0.0 | 0.0 | 0.00 | 0.00 | 0.00 | 70 | 1010.1 |
| 20260509120132 | 56 | 228 | 0.9 | 1.7 | 0.00 | 0.00 | 0.00 | 69 | 1010.1 |
| 20260509115629 | 56 | 199 | 0.9 | 1.7 | 0.00 | 0.00 | 0.00 | 69 | 1010.0 |
| 20260509115127 | 56 | 280 | 0.9 | 0.9 | 0.00 | 0.00 | 0.00 | 71 | 1010.1 |
| 20260509114625 | 55 | 222 | 1.7 | 1.7 | 0.00 | 0.00 | 0.00 | 70 | 1010.2 |
| 20260509114123 | 55 | 227 | 0.0 | 0.9 | 0.00 | 0.00 | 0.00 | 71 | 1009.7 |
| 20260509113621 | 55 | 251 | 0.0 | 1.7 | 0.00 | 0.00 | 0.00 | 71 | 1010.1 |
| 20260509113118 | 55 | 211 | 1.7 | 1.7 | 0.00 | 0.00 | 0.00 | 69 | 1009.9 |
| 20260509112614 | 55 | 281 | 0.0 | 0.0 | 0.00 | 0.00 | 0.00 | 70 | 1009.9 |
| 20260509112112 | 56 | 275 | 0.0 | 0.0 | 0.00 | 0.00 | 0.00 | 69 | 1009.8 |
| 20260509111609 | 55 | 214 | 2.6 | 2.6 | 0.00 | 0.00 | 0.00 | 68 | 1009.9 |
| 20260509111106 | 55 | 209 | 1.7 | 2.6 | 0.00 | 0.00 | 0.00 | 68 | 1010.0 |
| 20260509110603 | 55 | 276 | 0.0 | 0.0 | 0.00 | 0.00 | 0.00 | 69 | 1009.9 |
| 20260509110100 | 55 | 264 | 0.0 | 0.9 | 0.00 | 0.00 | 0.00 | 70 | 1010.1 |
| 20260509105558 | 55 | 199 | 1.7 | 4.3 | 0.00 | 0.00 | 0.00 | 69 | 1009.9 |
| 20260509105055 | 55 | 215 | 2.6 | 2.6 | 0.00 | 0.00 | 0.00 | 70 | 1009.6 |
| 20260509104552 | 55 | 242 | 0.9 | 5.2 | 0.00 | 0.00 | 0.00 | 69 | 1009.7 |
| 20260509104049 | 55 | 240 | 1.7 | 2.6 | 0.00 | 0.00 | 0.00 | 70 | 1009.7 |
| 20260509103547 | 55 | 261 | 0.0 | 0.0 | 0.00 | 0.00 | 0.00 | 71 | 1009.4 |
| 20260509103045 | 55 | 246 | 0.0 | 0.0 | 0.00 | 0.00 | 0.00 | 70 | 1009.6 |
| 20260509102542 | 55 | 270 | 0.0 | 0.0 | 0.00 | 0.00 | 0.00 | 69 | 1009.6 |
| 20260509102039 | 55 | 240 | 0.0 | 2.6 | 0.00 | 0.00 | 0.00 | 68 | 1009.7 |
| 20260509101535 | 55 | 204 | 0.9 | 1.7 | 0.00 | 0.00 | 0.00 | 68 | 1009.7 |
| 20260509101032 | 55 | 229 | 1.7 | 2.6 | 0.00 | 0.00 | 0.00 | 70 | 1009.7 |
| 20260509100529 | 55 | 202 | 2.6 | 2.6 | 0.00 | 0.00 | 0.00 | 69 | 1009.5 |
| 20260509100026 | 54 | 265 | 0.9 | 1.7 | 0.00 | 0.00 | 0.00 | 70 | 1009.7 |
| 20260509095523 | 54 | 220 | 1.7 | 2.6 | 0.00 | 0.00 | 0.00 | 72 | 1009.9 |
| 20260509095020 | 54 | 238 | 0.0 | 1.7 | 0.00 | 0.00 | 0.00 | 73 | 1009.7 |
| 20260509094516 | 54 | 255 | 0.0 | 0.9 | 0.00 | 0.00 | 0.00 | 72 | 1009.7 |
| 20260509094014 | 54 | 267 | 0.0 | 1.7 | 0.00 | 0.00 | 0.00 | 74 | 1009.8 |
| 20260509093512 | 54 | 260 | 0.0 | 0.0 | 0.00 | 0.00 | 0.00 | 75 | 1009.8 |
| 20260509093009 | 54 | 257 | 0.9 | 0.9 | 0.00 | 0.00 | 0.00 | 71 | 1009.7 |
| 20260509092507 | 54 | 249 | 0.9 | 4.3 | 0.00 | 0.00 | 0.00 | 70 | 1009.8 |
| 20260509092006 | 54 | 233 | 1.7 | 2.6 | 0.00 | 0.00 | 0.00 | 70 | 1009.9 |
| 20260509091502 | 54 | 248 | 0.0 | 0.9 | 0.00 | 0.00 | 0.00 | 72 | 1009.9 |
| 20260509090959 | 53 | 222 | 0.9 | 2.6 | 0.00 | 0.00 | 0.00 | 73 | 1009.8 |
| 20260509090456 | 53 | 264 | 0.0 | 0.9 | 0.00 | 0.00 | 0.00 | 75 | 1009.9 |
| 20260509085954 | 53 | 201 | 1.7 | 1.7 | 0.00 | 0.00 | 0.00 | 77 | 1009.9 |
| 20260509085451 | 53 | 256 | 0.0 | 0.9 | 0.00 | 0.00 | 0.00 | 78 | 1009.6 |
| 20260509084947 | 53 | 221 | 0.0 | 1.7 | 0.00 | 0.00 | 0.00 | 77 | 1009.8 |
| 20260509084444 | 53 | 207 | 1.7 | 2.6 | 0.00 | 0.00 | 0.00 | 77 | 1009.9 |
| 20260509083941 | 53 | 242 | 1.7 | 1.7 | 0.00 | 0.00 | 0.00 | 77 | 1009.9 |
| 20260509083438 | 53 | 249 | 0.9 | 1.7 | 0.00 | 0.00 | 0.00 | 76 | 1009.9 |
| 20260509082929 | 53 | 235 | 1.7 | 1.7 | 0.00 | 0.00 | 0.00 | 76 | 1009.7 |
| 20260509082427 | 53 | 217 | 0.9 | 1.7 | 0.00 | 0.00 | 0.00 | 75 | 1010.0 |
| 20260509081923 | 53 | 258 | 0.0 | 0.9 | 0.00 | 0.00 | 0.00 | 76 | 1010.0 |
| 20260509081421 | 53 | 264 | 0.9 | 1.7 | 0.00 | 0.00 | 0.00 | 76 | 1010.1 |
| 20260509080918 | 53 | 245 | 1.7 | 1.7 | 0.00 | 0.00 | 0.00 | 75 | 1009.9 |
| 20260509080416 | 53 | 268 | 0.0 | 0.0 | 0.00 | 0.00 | 0.00 | 76 | 1010.1 |
| 20260509075914 | 52 | 227 | 0.0 | 0.9 | 0.00 | 0.00 | 0.00 | 77 | 1010.0 |
| 20260509075410 | 52 | 255 | 0.0 | 0.0 | 0.00 | 0.00 | 0.00 | 79 | 1010.0 |
| 20260509074908 | 52 | 261 | 0.0 | 0.0 | 0.00 | 0.00 | 0.00 | 79 | 1009.7 |
| 20260509074406 | 52 | 228 | 0.0 | 0.0 | 0.00 | 0.00 | 0.00 | 81 | 1010.1 |
| 20260509073902 | 52 | 247 | 0.0 | 0.0 | 0.00 | 0.00 | 0.00 | 81 | 1010.0 |
| 20260509073358 | 51 | 241 | 0.0 | 0.9 | 0.00 | 0.00 | 0.00 | 83 | 1010.1 |
| 20260509072855 | 51 | 262 | 0.0 | 0.0 | 0.00 | 0.00 | 0.00 | 84 | 1010.0 |
| 20260509072351 | 50 | 257 | 0.0 | 0.0 | 0.00 | 0.00 | 0.00 | 86 | 1010.2 |
| 20260509071848 | 50 | 253 | 0.0 | 0.0 | 0.00 | 0.00 | 0.00 | 88 | 1010.0 |
| 20260509071345 | 50 | 249 | 0.0 | 0.0 | 0.00 | 0.00 | 0.00 | 89 | 1009.9 |
| 20260509070842 | 50 | 267 | 0.0 | 0.0 | 0.00 | 0.00 | 0.00 | 90 | 1010.0 |
| 20260509070339 | 50 | 267 | 0.0 | 0.0 | 0.00 | 0.00 | 0.00 | 90 | 1010.0 |
| 20260509065835 | 50 | 276 | 0.0 | 0.0 | 0.00 | 0.00 | 0.00 | 90 | 1010.0 |
| 20260509065331 | 49 | 278 | 0.0 | 0.0 | 0.00 | 0.00 | 0.00 | 90 | 1010.1 |
| 20260509064827 | 49 | 279 | 0.0 | 0.0 | 0.00 | 0.00 | 0.00 | 90 | 1010.1 |
| 20260509064325 | 50 | 280 | 0.0 | 0.0 | 0.00 | 0.00 | 0.00 | 89 | 1010.2 |
| 20260509063822 | 50 | 280 | 0.0 | 0.0 | 0.00 | 0.00 | 0.00 | 89 | 1010.1 |
| 20260509063318 | 50 | 280 | 0.0 | 0.0 | 0.00 | 0.00 | 0.00 | 89 | 1010.2 |
| 20260509062816 | 50 | 281 | 0.0 | 0.0 | 0.00 | 0.00 | 0.00 | 88 | 1010.3 |
| 20260509062313 | 50 | 286 | 0.0 | 0.0 | 0.00 | 0.00 | 0.00 | 87 | 1010.5 |
| 20260509061810 | 51 | 285 | 0.0 | 0.0 | 0.00 | 0.00 | 0.00 | 84 | 1010.3 |
| 20260509061308 | 51 | 271 | 0.0 | 0.0 | 0.00 | 0.00 | 0.00 | 81 | 1010.5 |
| 20260509060805 | 52 | 269 | 0.0 | 0.0 | 0.00 | 0.00 | 0.00 | 81 | 1010.7 |
| 20260509060302 | 52 | 264 | 0.0 | 0.9 | 0.00 | 0.00 | 0.00 | 80 | 1010.5 |
| 20260509055757 | 51 | 267 | 0.0 | 0.0 | 0.00 | 0.00 | 0.00 | 82 | 1010.5 |
| 20260509055253 | 51 | 260 | 0.0 | 0.0 | 0.00 | 0.00 | 0.00 | 84 | 1010.3 |
| 20260509054750 | 50 | 273 | 0.0 | 0.0 | 0.00 | 0.00 | 0.00 | 86 | 1010.5 |
| 20260509054246 | 50 | 292 | 0.0 | 0.0 | 0.00 | 0.00 | 0.00 | 86 | 1010.5 |
| 20260509053745 | 50 | 286 | 0.0 | 0.9 | 0.00 | 0.00 | 0.00 | 86 | 1010.4 |
| 20260509053242 | 50 | 292 | 0.0 | 0.0 | 0.00 | 0.00 | 0.00 | 86 | 1010.3 |
| 20260509052740 | 50 | 283 | 0.0 | 0.0 | 0.00 | 0.00 | 0.00 | 85 | 1010.3 |
| 20260509052237 | 50 | 272 | 0.0 | 0.0 | 0.00 | 0.00 | 0.00 | 85 | 1010.2 |
| 20260509051734 | 50 | 251 | 0.0 | 0.0 | 0.00 | 0.00 | 0.00 | 85 | 1010.2 |
| 20260509051232 | 51 | 229 | 0.0 | 0.0 | 0.00 | 0.00 | 0.00 | 86 | 1010.5 |
| 20260509050729 | 51 | 259 | 0.0 | 0.0 | 0.00 | 0.00 | 0.00 | 83 | 1010.8 |
| 20260509050226 | 51 | 267 | 0.0 | 0.0 | 0.00 | 0.00 | 0.00 | 81 | 1010.8 |
| 20260509045723 | 51 | 252 | 0.0 | 0.0 | 0.00 | 0.00 | 0.00 | 83 | 1010.6 |
| 20260509045219 | 52 | 264 | 0.0 | 0.0 | 0.00 | 0.00 | 0.00 | 82 | 1010.6 |
| 20260509044717 | 51 | 279 | 0.0 | 0.0 | 0.00 | 0.00 | 0.00 | 81 | 1010.8 |
| 20260509044215 | 51 | 286 | 0.0 | 0.0 | 0.00 | 0.00 | 0.00 | 82 | 1010.9 |
| 20260509043711 | 51 | 286 | 0.0 | 0.0 | 0.00 | 0.00 | 0.00 | 82 | 1010.9 |
| 20260509043207 | 50 | 287 | 0.0 | 0.0 | 0.00 | 0.00 | 0.00 | 83 | 1010.8 |
| 20260509042703 | 50 | 287 | 0.0 | 0.0 | 0.00 | 0.00 | 0.00 | 83 | 1010.8 |
| 20260509042159 | 51 | 285 | 0.0 | 0.0 | 0.00 | 0.00 | 0.00 | 82 | 1010.7 |
| 20260509041656 | 51 | 270 | 0.0 | 0.0 | 0.00 | 0.00 | 0.00 | 81 | 1010.8 |
| 20260509041153 | 52 | 298 | 0.0 | 0.0 | 0.00 | 0.00 | 0.00 | 80 | 1010.9 |
| 20260509040652 | 52 | 214 | 0.0 | 0.0 | 0.00 | 0.00 | 0.00 | 78 | 1010.6 |
| 20260509040148 | 52 | 266 | 0.0 | 0.0 | 0.00 | 0.00 | 0.00 | 79 | 1010.7 |
| 20260509035645 | 53 | 278 | 0.0 | 0.0 | 0.00 | 0.00 | 0.00 | 77 | 1010.8 |
| 20260509035142 | 53 | 289 | 0.0 | 0.0 | 0.00 | 0.00 | 0.00 | 75 | 1010.9 |
| 20260509034639 | 53 | 290 | 0.0 | 0.0 | 0.00 | 0.00 | 0.00 | 75 | 1011.0 |
| 20260509034136 | 52 | 280 | 0.0 | 0.0 | 0.00 | 0.00 | 0.00 | 78 | 1010.9 |
| 20260509033633 | 53 | 280 | 0.0 | 0.0 | 0.00 | 0.00 | 0.00 | 78 | 1011.1 |
| 20260509033130 | 53 | 279 | 0.0 | 0.0 | 0.00 | 0.00 | 0.00 | 76 | 1010.8 |
| 20260509032628 | 53 | 269 | 0.0 | 0.0 | 0.00 | 0.00 | 0.00 | 78 | 1011.1 |
| 20260509032124 | 53 | 291 | 0.0 | 0.0 | 0.00 | 0.00 | 0.00 | 78 | 1011.0 |
| 20260509031622 | 54 | 290 | 0.0 | 0.0 | 0.00 | 0.00 | 0.00 | 74 | 1010.8 |
| 20260509031119 | 54 | 294 | 0.0 | 0.0 | 0.00 | 0.00 | 0.00 | 75 | 1010.8 |
| 20260509030617 | 54 | 282 | 0.0 | 0.0 | 0.00 | 0.00 | 0.00 | 78 | 1010.9 |
| 20260509030114 | 54 | 294 | 0.0 | 0.0 | 0.00 | 0.00 | 0.00 | 77 | 1010.9 |
| 20260509025610 | 54 | 297 | 0.0 | 0.0 | 0.00 | 0.00 | 0.00 | 75 | 1011.0 |
| 20260509025106 | 54 | 274 | 0.0 | 0.0 | 0.00 | 0.00 | 0.00 | 75 | 1011.0 |
| 20260509024602 | 54 | 260 | 0.0 | 0.0 | 0.00 | 0.00 | 0.00 | 75 | 1011.3 |
| 20260509024058 | 55 | 267 | 0.0 | 0.0 | 0.00 | 0.00 | 0.00 | 73 | 1011.3 |
| 20260509023556 | 56 | 267 | 0.0 | 0.0 | 0.00 | 0.00 | 0.00 | 71 | 1011.3 |
| 20260509023053 | 56 | 296 | 0.0 | 0.0 | 0.00 | 0.00 | 0.00 | 69 | 1011.1 |
| 20260509022549 | 56 | 295 | 0.0 | 0.0 | 0.00 | 0.00 | 0.00 | 69 | 1011.3 |
| 20260509022047 | 56 | 304 | 0.0 | 0.0 | 0.00 | 0.00 | 0.00 | 70 | 1011.4 |
| 20260509021544 | 57 | 296 | 0.0 | 0.0 | 0.00 | 0.00 | 0.00 | 69 | 1011.3 |
| 20260509021041 | 57 | 287 | 0.0 | 0.0 | 0.00 | 0.00 | 0.00 | 67 | 1011.2 |
| 20260509020539 | 57 | 278 | 0.0 | 0.0 | 0.00 | 0.00 | 0.00 | 66 | 1011.0 |
| 20260509020035 | 57 | 277 | 0.0 | 0.0 | 0.00 | 0.00 | 0.00 | 68 | 1011.0 |
| 20260509015535 | 57 | 292 | 0.0 | 0.0 | 0.00 | 0.00 | 0.00 | 66 | 1011.0 |
| 20260509015032 | 57 | 287 | 0.0 | 0.0 | 0.00 | 0.00 | 0.00 | 65 | 1011.0 |
| 20260509014528 | 57 | 286 | 0.0 | 0.0 | 0.00 | 0.00 | 0.00 | 66 | 1011.1 |
| 20260509014024 | 57 | 286 | 0.0 | 0.0 | 0.00 | 0.00 | 0.00 | 67 | 1011.4 |
| 20260509013522 | 57 | 286 | 0.0 | 0.0 | 0.00 | 0.00 | 0.00 | 67 | 1011.1 |
| 20260509013017 | 58 | 286 | 0.0 | 0.0 | 0.00 | 0.00 | 0.00 | 66 | 1011.2 |
| 20260509012514 | 58 | 291 | 0.0 | 0.0 | 0.00 | 0.00 | 0.00 | 64 | 1011.0 |
| 20260509012011 | 58 | 297 | 0.0 | 0.0 | 0.00 | 0.00 | 0.00 | 65 | 1011.1 |
| 20260509011509 | 58 | 303 | 0.0 | 0.0 | 0.00 | 0.00 | 0.00 | 67 | 1010.9 |
| 20260509011006 | 59 | 289 | 0.0 | 0.0 | 0.00 | 0.00 | 0.00 | 64 | 1010.8 |
| 20260509010503 | 59 | 290 | 0.0 | 0.0 | 0.00 | 0.00 | 0.00 | 62 | 1011.0 |
| 20260509010000 | 60 | 289 | 0.0 | 0.0 | 0.00 | 0.00 | 0.00 | 61 | 1010.9 |
| 20260509005458 | 61 | 288 | 0.0 | 0.0 | 0.00 | 0.00 | 0.00 | 56 | 1010.8 |
| 20260509004957 | 62 | 269 | 0.0 | 0.0 | 0.00 | 0.00 | 0.00 | 55 | 1010.8 |
| 20260509004455 | 62 | 261 | 0.0 | 0.0 | 0.00 | 0.00 | 0.00 | 52 | 1010.8 |
| 20260509003952 | 62 | 251 | 0.0 | 0.0 | 0.00 | 0.00 | 0.00 | 50 | 1010.9 |
| 20260509003450 | 63 | 280 | 0.0 | 0.0 | 0.00 | 0.00 | 0.00 | 49 | 1010.9 |
| 20260509002947 | 62 | 284 | 0.0 | 0.0 | 0.00 | 0.00 | 0.00 | 47 | 1010.7 |
| 20260509002445 | 63 | 285 | 0.0 | 0.0 | 0.00 | 0.00 | 0.00 | 48 | 1010.7 |
| 20260509001942 | 63 | 271 | 0.0 | 0.0 | 0.00 | 0.00 | 0.00 | 45 | 1011.0 |
| 20260509001438 | 63 | 271 | 0.0 | 0.0 | 0.00 | 0.00 | 0.00 | 47 | 1010.6 |
| 20260509000935 | 64 | 271 | 0.0 | 0.0 | 0.00 | 0.00 | 0.00 | 47 | 1010.7 |
| 20260509000433 | 64 | 268 | 0.0 | 0.0 | 0.00 | 0.00 | 0.00 | 46 | 1010.6 |
| 20260508235928 | 64 | 272 | 0.0 | 0.0 | 0.00 | 0.00 | 0.00 | 46 | 1010.7 |
| 20260508235427 | 65 | 271 | 0.0 | 0.0 | 0.00 | 0.00 | 0.00 | 45 | 1010.5 |
| 20260508234923 | 65 | 271 | 0.0 | 0.0 | 0.00 | 0.00 | 0.00 | 45 | 1010.5 |
| 20260508234420 | 65 | 275 | 0.0 | 0.0 | 0.00 | 0.00 | 0.00 | 45 | 1010.5 |
| 20260508233918 | 65 | 284 | 0.0 | 0.0 | 0.00 | 0.00 | 0.00 | 45 | 1010.4 |
| 20260508233417 | 65 | 286 | 0.0 | 0.0 | 0.00 | 0.00 | 0.00 | 46 | 1010.4 |
| 20260508232913 | 65 | 290 | 0.9 | 1.7 | 0.00 | 0.00 | 0.00 | 44 | 1010.1 |
| 20260508232410 | 65 | 290 | 0.9 | 1.7 | 0.00 | 0.00 | 0.00 | 45 | 1010.2 |
| 20260508231908 | 66 | 290 | 0.9 | 0.9 | 0.00 | 0.00 | 0.00 | 44 | 1010.2 |
| 20260508231404 | 66 | 304 | 0.9 | 1.7 | 0.00 | 0.00 | 0.00 | 44 | 1010.3 |
| 20260508230856 | 66 | 311 | 0.0 | 2.6 | 0.00 | 0.00 | 0.00 | 44 | 1010.2 |
| 20260508230352 | 66 | 300 | 0.0 | 1.7 | 0.00 | 0.00 | 0.00 | 43 | 1010.2 |
| 20260508225850 | 66 | 294 | 1.7 | 1.7 | 0.00 | 0.00 | 0.00 | 41 | 1010.1 |
| 20260508225346 | 66 | 286 | 0.0 | 0.0 | 0.00 | 0.00 | 0.00 | 43 | 1009.9 |
| 20260508224844 | 66 | 284 | 1.7 | 4.3 | 0.00 | 0.00 | 0.00 | 42 | 1010.3 |
| 20260508224341 | 66 | 310 | 2.6 | 5.2 | 0.00 | 0.00 | 0.00 | 42 | 1010.1 |
| 20260508223839 | 67 | 277 | 2.6 | 4.3 | 0.00 | 0.00 | 0.00 | 41 | 1010.3 |
| 20260508223336 | 67 | 275 | 1.7 | 1.7 | 0.00 | 0.00 | 0.00 | 43 | 1010.3 |
| 20260508222833 | 68 | 264 | 4.3 | 7.0 | 0.00 | 0.00 | 0.00 | 40 | 1010.3 |
| 20260508222330 | 68 | 305 | 0.9 | 2.6 | 0.00 | 0.00 | 0.00 | 43 | 1010.0 |
| 20260508221827 | 69 | 277 | 1.7 | 2.6 | 0.00 | 0.00 | 0.00 | 40 | 1010.0 |
| 20260508221322 | 69 | 234 | 5.2 | 7.0 | 0.00 | 0.00 | 0.00 | 37 | 1010.2 |
| 20260508220819 | 69 | 240 | 4.3 | 7.8 | 0.00 | 0.00 | 0.00 | 37 | 1010.1 |
| 20260508220315 | 70 | 279 | 2.6 | 6.1 | 0.00 | 0.00 | 0.00 | 38 | 1010.1 |
| 20260508215813 | 70 | 309 | 4.3 | 7.8 | 0.00 | 0.00 | 0.00 | 36 | 1010.2 |
| 20260508215309 | 70 | 260 | 2.6 | 7.0 | 0.00 | 0.00 | 0.00 | 37 | 1010.5 |
| 20260508214806 | 70 | 278 | 4.3 | 7.0 | 0.00 | 0.00 | 0.00 | 39 | 1010.0 |
| 20260508214303 | 69 | 253 | 3.5 | 5.2 | 0.00 | 0.00 | 0.00 | 36 | 1010.1 |
| 20260508213759 | 68 | 319 | 5.2 | 8.7 | 0.00 | 0.00 | 0.00 | 37 | 1010.0 |
| 20260508213256 | 68 | 269 | 1.7 | 5.2 | 0.00 | 0.00 | 0.00 | 38 | 1010.2 |
| 20260508212753 | 69 | 282 | 0.9 | 5.2 | 0.00 | 0.00 | 0.00 | 39 | 1010.2 |
| 20260508212249 | 69 | 291 | 4.3 | 7.8 | 0.00 | 0.00 | 0.00 | 37 | 1010.2 |
| 20260508211745 | 69 | 291 | 2.6 | 7.0 | 0.00 | 0.00 | 0.00 | 37 | 1010.3 |
| 20260508211241 | 69 | 283 | 5.2 | 7.0 | 0.00 | 0.00 | 0.00 | 36 | 1010.1 |
| 20260508210739 | 69 | 267 | 2.6 | 6.1 | 0.00 | 0.00 | 0.00 | 37 | 1010.3 |
| 20260508210235 | 69 | 278 | 3.5 | 5.2 | 0.00 | 0.00 | 0.00 | 36 | 1010.0 |
| 20260508205732 | 69 | 269 | 5.2 | 7.8 | 0.00 | 0.00 | 0.00 | 36 | 1010.1 |
| 20260508205228 | 70 | 238 | 2.6 | 8.7 | 0.00 | 0.00 | 0.00 | 36 | 1010.0 |
| 20260508204725 | 70 | 312 | 2.6 | 5.2 | 0.00 | 0.00 | 0.00 | 36 | 1010.0 |
| 20260508204221 | 70 | 315 | 5.2 | 8.7 | 0.00 | 0.00 | 0.00 | 35 | 1010.2 |
| 20260508203717 | 69 | 271 | 5.2 | 8.7 | 0.00 | 0.00 | 0.00 | 36 | 1010.5 |
| 20260508203214 | 69 | 281 | 6.1 | 7.8 | 0.00 | 0.00 | 0.00 | 36 | 1010.2 |
| 20260508202710 | 68 | 244 | 6.1 | 13.0 | 0.00 | 0.00 | 0.00 | 36 | 1010.6 |
| 20260508202207 | 69 | 255 | 2.6 | 11.3 | 0.00 | 0.00 | 0.00 | 36 | 1010.5 |